Time;durP1;ratioP1;P1;durP2;ratioP2;P2;SDS_P1;SDS_P2;PMS_P1;PMS_P2;Temp;Humidity;BMP_temperature;BMP_pressure;BME280_temperature;BME280_humidity;BME280_pressure;Samples;Min_cycle;Max_cycle;Signal;HPM_P1;HPM_P2
2022/03/29 00:00:59;;;;;;;19.40;14.30;;;6.80;99.90;;;;;;5020694;28;20041;-77
2022/03/29 00:03:24;;;;;;;17.38;12.68;;;6.80;99.90;;;;;;5002132;28;20030;-77
2022/03/29 00:05:50;;;;;;;20.08;13.88;;;6.80;99.90;;;;;;5002676;28;20785;-77
2022/03/29 00:08:16;;;;;;;19.02;13.90;;;6.70;99.90;;;;;;5018547;28;20056;-78
2022/03/29 00:10:41;;;;;;;14.38;10.43;;;6.70;99.90;;;;;;4998104;28;20033;-78
2022/03/29 00:13:07;;;;;;;16.35;11.45;;;6.70;99.90;;;;;;5002323;28;20461;-77
2022/03/29 00:15:33;;;;;;;16.13;12.13;;;6.60;99.90;;;;;;4996375;28;20033;-79
2022/03/29 00:17:59;;;;;;;19.10;12.60;;;6.60;99.90;;;;;;4997449;28;20030;-78
2022/03/29 00:20:25;;;;;;;15.50;10.75;;;6.60;99.90;;;;;;5009930;28;20021;-77
2022/03/29 00:22:50;;;;;;;16.33;12.65;;;6.50;99.90;;;;;;5003670;28;20556;-78
2022/03/29 00:25:18;;;;;;;15.45;11.20;;;6.50;99.90;;;;;;5017200;28;20026;-78
2022/03/29 00:27:43;;;;;;;15.23;11.70;;;6.50;99.90;;;;;;5002346;28;20041;-78
2022/03/29 00:30:11;;;;;;;22.25;15.70;;;6.40;99.90;;;;;;5021146;28;20178;-78
2022/03/29 00:32:40;;;;;;;16.52;12.63;;;6.40;99.90;;;;;;5001116;28;20072;-77
2022/03/29 00:35:06;;;;;;;18.15;13.52;;;6.40;99.90;;;;;;4984751;28;20113;-78
2022/03/29 00:37:32;;;;;;;19.75;14.50;;;6.40;99.90;;;;;;5009160;28;20030;-78
2022/03/29 00:39:58;;;;;;;22.60;14.10;;;6.40;99.90;;;;;;5019953;28;20037;-77
2022/03/29 00:42:23;;;;;;;21.35;14.82;;;6.40;99.90;;;;;;5009104;28;20065;-77
2022/03/29 00:44:49;;;;;;;23.23;16.25;;;6.40;99.90;;;;;;5019930;28;20256;-77
2022/03/29 00:47:15;;;;;;;32.28;20.38;;;6.40;99.90;;;;;;5002078;28;20041;-77
2022/03/29 00:49:41;;;;;;;25.73;17.48;;;6.40;99.90;;;;;;5001822;28;20029;-78
2022/03/29 00:52:07;;;;;;;27.20;16.83;;;6.50;99.90;;;;;;5001887;28;20436;-78
2022/03/29 00:54:35;;;;;;;23.02;15.77;;;6.50;99.90;;;;;;5013139;28;20029;-78
2022/03/29 00:57:02;;;;;;;22.83;15.77;;;6.50;99.90;;;;;;5002702;28;20037;-77
2022/03/29 00:59:29;;;;;;;20.95;14.68;;;6.50;99.90;;;;;;5000897;28;20033;-78
2022/03/29 01:01:57;;;;;;;21.92;14.18;;;6.50;99.90;;;;;;5019819;28;20510;-78
2022/03/29 01:04:27;;;;;;;20.98;14.10;;;6.50;99.90;;;;;;4984041;28;20033;-77
2022/03/29 01:06:59;;;;;;;25.13;16.20;;;6.50;99.90;;;;;;4997234;28;20029;-77
2022/03/29 01:09:26;;;;;;;27.63;17.55;;;6.50;99.90;;;;;;4978681;28;20048;-78
2022/03/29 01:11:52;;;;;;;28.65;18.20;;;6.50;99.90;;;;;;5018659;28;20506;-78
2022/03/29 01:14:20;;;;;;;25.15;18.02;;;6.50;99.90;;;;;;4995629;28;20061;-77
2022/03/29 01:19:31;;;;;;;24.08;15.38;;;6.50;99.90;;;;;;4995293;28;20474;-77
2022/03/29 01:21:59;;;;;;;20.80;14.77;;;6.50;99.90;;;;;;4985707;28;20038;-78
2022/03/29 01:24:26;;;;;;;19.83;12.95;;;6.50;99.90;;;;;;4996202;28;20123;-77
2022/03/29 01:27:00;;;;;;;20.92;14.50;;;6.50;99.90;;;;;;4995244;28;20079;-78
2022/03/29 01:29:29;;;;;;;22.90;15.82;;;6.60;99.90;;;;;;4995863;28;20029;-78
2022/03/29 01:31:56;;;;;;;24.90;14.40;;;6.50;99.90;;;;;;5001458;28;20034;-78
2022/03/29 01:34:22;;;;;;;21.70;15.27;;;6.60;99.90;;;;;;5000045;28;20025;-78
2022/03/29 01:36:48;;;;;;;20.30;14.18;;;6.60;99.90;;;;;;4985295;28;20037;-78
2022/03/29 01:39:15;;;;;;;27.17;17.60;;;6.60;99.90;;;;;;5000870;28;20497;-77
2022/03/29 01:41:40;;;;;;;24.88;15.70;;;6.50;99.90;;;;;;4984775;28;20085;-77
2022/03/29 01:44:07;;;;;;;27.15;16.63;;;6.50;99.90;;;;;;5000334;28;20149;-77
2022/03/29 01:46:33;;;;;;;24.73;16.45;;;6.50;99.90;;;;;;5019066;28;20025;-77
2022/03/29 01:49:00;;;;;;;21.77;14.23;;;6.40;99.90;;;;;;5016374;28;20083;-77
2022/03/29 01:51:25;;;;;;;20.95;13.70;;;6.50;99.90;;;;;;4978053;28;20034;-77
2022/03/29 01:53:57;;;;;;;21.70;14.82;;;6.50;99.90;;;;;;5011283;28;20033;-77
2022/03/29 01:56:27;;;;;;;23.23;14.63;;;6.50;99.90;;;;;;4999764;28;20041;-78
2022/03/29 01:58:53;;;;;;;18.63;12.73;;;6.50;99.90;;;;;;5007580;28;20117;-78
2022/03/29 02:01:18;;;;;;;18.95;12.73;;;6.40;99.90;;;;;;5000503;28;20045;-77
2022/03/29 02:03:44;;;;;;;18.55;13.20;;;6.40;99.90;;;;;;5016599;28;20583;-78
2022/03/29 02:06:09;;;;;;;23.27;14.82;;;6.40;99.90;;;;;;5001490;28;20473;-77
2022/03/29 02:08:35;;;;;;;18.85;12.75;;;6.40;99.90;;;;;;5019199;28;20099;-78
2022/03/29 02:11:01;;;;;;;20.05;13.50;;;6.30;99.90;;;;;;5012855;28;20678;-77
2022/03/29 02:13:27;;;;;;;23.05;14.45;;;6.40;99.90;;;;;;4977693;28;20025;-77
2022/03/29 02:15:53;;;;;;;19.88;13.55;;;6.40;99.90;;;;;;5000822;28;20385;-77
2022/03/29 02:18:18;;;;;;;19.05;12.45;;;6.40;99.90;;;;;;5017231;28;20029;-76
2022/03/29 02:20:44;;;;;;;16.40;11.00;;;6.40;99.90;;;;;;5001764;28;20187;-78
2022/03/29 02:23:14;;;;;;;20.88;13.70;;;6.40;99.90;;;;;;5018571;28;20557;-78
2022/03/29 02:25:40;;;;;;;19.85;12.25;;;6.50;99.90;;;;;;4977853;28;20508;-77
2022/03/29 02:28:06;;;;;;;22.73;15.45;;;6.50;99.90;;;;;;5018977;28;20120;-77
2022/03/29 02:30:35;;;;;;;22.52;14.23;;;6.40;99.90;;;;;;5000888;28;20075;-77
2022/03/29 02:33:02;;;;;;;24.35;13.55;;;6.40;99.90;;;;;;4993796;28;20080;-77
2022/03/29 02:35:28;;;;;;;19.67;12.13;;;6.40;99.90;;;;;;5017284;28;20534;-77
2022/03/29 02:37:53;;;;;;;17.70;11.77;;;6.50;99.90;;;;;;4978074;28;20028;-78
2022/03/29 02:40:19;;;;;;;20.90;13.88;;;6.50;99.90;;;;;;4993577;28;20642;-78
2022/03/29 02:42:53;;;;;;;21.00;13.65;;;6.50;99.90;;;;;;5007673;28;20045;-77
2022/03/29 02:45:21;;;;;;;21.60;13.38;;;6.50;99.90;;;;;;5009926;28;20466;-77
2022/03/29 02:47:49;;;;;;;21.08;13.77;;;6.50;99.90;;;;;;4985022;28;20052;-77
2022/03/29 02:50:15;;;;;;;22.60;14.82;;;6.40;99.90;;;;;;4982675;28;20120;-77
2022/03/29 02:52:56;;;;;;;19.20;12.52;;;6.40;99.90;;;;;;4993294;28;20042;-78
2022/03/29 02:55:25;;;;;;;21.23;12.88;;;6.40;99.90;;;;;;4978495;28;20438;-79
2022/03/29 02:57:51;;;;;;;20.98;13.60;;;6.40;99.90;;;;;;5000364;28;20099;-77
2022/03/29 03:00:17;;;;;;;20.77;12.40;;;6.40;99.90;;;;;;5015801;28;20501;-77
2022/03/29 03:02:44;;;;;;;23.70;14.93;;;6.40;99.90;;;;;;5016858;28;20045;-79
2022/03/29 03:05:10;;;;;;;23.55;14.13;;;6.40;99.90;;;;;;4994760;28;20040;-77
2022/03/29 03:07:37;;;;;;;20.95;14.02;;;6.50;99.90;;;;;;5021513;28;20032;-78
2022/03/29 03:10:04;;;;;;;24.30;14.40;;;6.50;99.90;;;;;;5020597;28;20086;-77
2022/03/29 03:12:34;;;;;;;23.05;14.15;;;6.50;99.90;;;;;;5021621;28;20029;-78
2022/03/29 03:15:00;;;;;;;20.73;13.43;;;6.50;99.90;;;;;;5003611;28;20041;-78
2022/03/29 03:17:25;;;;;;;19.60;12.55;;;6.50;99.90;;;;;;5002680;28;20029;-78
2022/03/29 03:19:51;;;;;;;22.55;13.95;;;6.40;99.90;;;;;;4987318;28;20025;-78
2022/03/29 03:22:16;;;;;;;21.75;12.75;;;6.40;99.90;;;;;;4997772;28;20494;-78
2022/03/29 03:24:42;;;;;;;27.75;16.27;;;6.40;99.90;;;;;;4997607;28;20436;-78
2022/03/29 03:27:08;;;;;;;24.25;14.52;;;6.40;99.90;;;;;;5003540;28;20441;-77
2022/03/29 03:29:34;;;;;;;22.05;13.85;;;6.40;99.90;;;;;;5002813;28;20056;-78
2022/03/29 03:32:00;;;;;;;24.73;13.82;;;6.50;99.90;;;;;;5021985;28;20112;-77
2022/03/29 03:34:26;;;;;;;21.90;14.77;;;6.50;99.90;;;;;;5003234;28;20017;-77
2022/03/29 03:36:51;;;;;;;22.30;12.00;;;6.50;99.90;;;;;;4999079;28;20099;-78
2022/03/29 03:39:18;;;;;;;20.27;12.82;;;6.40;99.90;;;;;;5021259;28;20037;-78
2022/03/29 03:41:44;;;;;;;16.40;10.68;;;6.40;99.90;;;;;;4997498;28;20041;-78
2022/03/29 03:44:11;;;;;;;20.73;13.23;;;6.40;99.90;;;;;;5009074;28;20087;-77
2022/03/29 03:46:37;;;;;;;24.15;14.45;;;6.40;99.90;;;;;;5003099;28;20034;-79
2022/03/29 03:49:02;;;;;;;19.95;13.70;;;6.40;99.90;;;;;;4998367;28;20693;-78
2022/03/29 03:51:28;;;;;;;23.30;13.98;;;6.40;99.90;;;;;;4986329;28;20132;-78
2022/03/29 03:53:54;;;;;;;22.25;11.93;;;6.30;99.90;;;;;;5002030;28;20497;-78
2022/03/29 03:56:19;;;;;;;18.60;11.75;;;6.30;99.90;;;;;;5002452;28;20045;-78
2022/03/29 03:58:45;;;;;;;19.02;11.48;;;6.40;99.90;;;;;;4987491;28;20041;-77
2022/03/29 04:01:12;;;;;;;19.20;11.27;;;6.40;99.90;;;;;;4987042;28;20137;-78
2022/03/29 04:03:38;;;;;;;14.60;8.30;;;6.30;99.90;;;;;;5019398;28;20036;-78
2022/03/29 04:06:04;;;;;;;18.17;11.35;;;6.40;99.90;;;;;;5020569;28;20034;-77
2022/03/29 04:08:29;;;;;;;18.10;11.77;;;6.40;99.90;;;;;;5018689;28;20041;-78
2022/03/29 04:10:56;;;;;;;18.88;11.82;;;6.40;99.90;;;;;;5001552;28;20040;-78
2022/03/29 04:13:22;;;;;;;18.83;12.32;;;6.30;99.90;;;;;;5012072;28;20038;-77
2022/03/29 04:15:48;;;;;;;18.58;11.73;;;6.30;99.90;;;;;;5002949;28;20032;-78
2022/03/29 04:18:14;;;;;;;18.48;11.48;;;6.30;99.90;;;;;;5002450;28;20124;-77
2022/03/29 04:20:40;;;;;;;17.00;11.02;;;6.20;99.90;;;;;;4979721;28;20474;-78
2022/03/29 04:23:07;;;;;;;18.70;11.23;;;6.30;99.90;;;;;;4980796;28;20045;-77
2022/03/29 04:25:34;;;;;;;17.92;11.00;;;6.20;99.90;;;;;;5002286;28;20022;-78
2022/03/29 04:28:00;;;;;;;19.75;13.25;;;6.20;99.90;;;;;;4998207;28;20037;-78
2022/03/29 04:30:26;;;;;;;25.70;16.13;;;6.20;99.90;;;;;;5009341;28;20034;-78
2022/03/29 04:32:53;;;;;;;18.85;11.43;;;6.10;99.90;;;;;;5002828;28;20048;-78
2022/03/29 04:35:18;;;;;;;20.75;12.95;;;6.20;99.90;;;;;;5018324;28;20386;-77
2022/03/29 04:37:44;;;;;;;19.42;11.70;;;6.20;99.90;;;;;;4979658;28;20044;-78
2022/03/29 04:40:10;;;;;;;18.38;11.20;;;6.20;99.90;;;;;;5003090;28;20037;-77
2022/03/29 04:42:44;;;;;;;19.88;11.70;;;6.20;99.90;;;;;;5019668;28;20033;-78
2022/03/29 04:45:10;;;;;;;19.00;12.38;;;6.30;99.90;;;;;;5020059;28;20044;-77
2022/03/29 04:47:36;;;;;;;18.52;10.98;;;6.20;99.90;;;;;;4985945;28;20072;-77
2022/03/29 04:50:01;;;;;;;19.85;11.73;;;6.30;99.90;;;;;;5019625;28;20037;-78
2022/03/29 04:52:27;;;;;;;19.35;11.77;;;6.20;99.90;;;;;;5001208;28;20060;-78
2022/03/29 04:54:53;;;;;;;19.00;11.75;;;6.10;99.90;;;;;;4995912;28;20116;-78
2022/03/29 04:57:19;;;;;;;19.40;12.13;;;6.10;99.90;;;;;;5003200;28;20032;-78
2022/03/29 04:59:44;;;;;;;15.65;9.70;;;6.10;99.90;;;;;;4996750;28;20857;-78
2022/03/29 05:02:10;;;;;;;20.92;13.13;;;6.10;99.90;;;;;;5002057;28;20053;-78
2022/03/29 05:04:35;;;;;;;19.50;12.25;;;6.10;99.90;;;;;;5017170;28;20026;-77
2022/03/29 05:07:01;;;;;;;21.65;12.90;;;6.20;99.90;;;;;;5002026;28;20581;-77
2022/03/29 05:09:26;;;;;;;16.48;8.80;;;6.20;99.90;;;;;;5002897;28;20393;-77
2022/03/29 05:11:52;;;;;;;16.75;11.15;;;6.20;99.90;;;;;;5018455;28;20033;-78
2022/03/29 05:14:18;;;;;;;22.67;11.45;;;6.10;99.90;;;;;;5002334;28;20473;-78
2022/03/29 05:16:43;;;;;;;19.42;11.25;;;6.20;99.90;;;;;;5020269;28;20109;-77
2022/03/29 05:19:09;;;;;;;19.60;11.07;;;6.20;99.90;;;;;;5019274;28;20469;-80
2022/03/29 05:21:34;;;;;;;20.42;12.05;;;6.20;99.90;;;;;;5019831;28;20041;-80
2022/03/29 05:24:00;;;;;;;18.38;11.30;;;6.00;99.90;;;;;;5017431;28;20026;-79
2022/03/29 05:26:26;;;;;;;16.42;10.95;;;6.10;99.90;;;;;;5001649;28;20029;-79
2022/03/29 05:28:51;;;;;;;19.55;11.52;;;6.10;99.90;;;;;;5006944;28;20506;-79
2022/03/29 05:31:17;;;;;;;16.13;9.70;;;6.10;99.90;;;;;;5001007;28;20280;-78
2022/03/29 05:33:43;;;;;;;18.58;10.80;;;6.10;99.90;;;;;;5017459;28;20398;-77
2022/03/29 05:36:08;;;;;;;19.17;10.35;;;6.10;99.90;;;;;;5017445;28;20045;-78
2022/03/29 05:38:34;;;;;;;17.55;11.10;;;6.10;99.90;;;;;;5001643;28;20033;-77
2022/03/29 05:41:00;;;;;;;19.33;11.02;;;6.10;99.90;;;;;;5001377;28;20030;-80
2022/03/29 05:43:25;;;;;;;18.38;11.18;;;6.10;99.90;;;;;;5001566;28;20475;-80
2022/03/29 05:48:53;;;;;;;19.55;11.10;;;6.10;99.90;;;;;;5025925;28;20049;-77
2022/03/29 05:51:24;;;;;;;14.82;8.13;;;6.10;99.90;;;;;;5006457;28;20029;-78
2022/03/29 05:53:50;;;;;;;18.13;10.70;;;6.20;99.90;;;;;;5005528;28;20033;-76
2022/03/29 05:56:15;;;;;;;18.83;10.90;;;6.20;99.90;;;;;;5004216;28;20068;-77
2022/03/29 05:58:41;;;;;;;18.70;11.88;;;6.20;99.90;;;;;;5023570;28;20125;-78
2022/03/29 06:01:07;;;;;;;19.75;11.38;;;6.30;99.90;;;;;;5003758;28;20045;-77
2022/03/29 06:03:33;;;;;;;17.90;10.55;;;6.20;99.90;;;;;;5011508;28;20477;-77
2022/03/29 06:05:58;;;;;;;19.88;11.98;;;6.30;99.90;;;;;;5001640;28;20029;-77
2022/03/29 06:08:24;;;;;;;20.90;12.85;;;6.20;99.90;;;;;;5007754;28;20065;-78
2022/03/29 06:10:49;;;;;;;19.45;11.82;;;6.20;99.90;;;;;;5003404;28;20076;-77
2022/03/29 06:13:15;;;;;;;19.73;11.70;;;6.30;99.90;;;;;;5008942;28;20037;-78
2022/03/29 06:15:40;;;;;;;17.63;11.50;;;6.30;99.90;;;;;;4985137;28;20091;-80
2022/03/29 06:18:06;;;;;;;19.25;11.48;;;6.30;99.90;;;;;;4985910;28;20398;-79
2022/03/29 06:20:32;;;;;;;17.25;11.05;;;6.30;99.90;;;;;;5011781;28;20033;-82
2022/03/29 06:22:58;;;;;;;23.00;13.70;;;6.30;99.90;;;;;;5019836;28;20068;-77
2022/03/29 06:25:24;;;;;;;18.52;11.73;;;6.40;99.90;;;;;;5002999;28;20053;-78
2022/03/29 06:27:50;;;;;;;19.77;11.73;;;6.40;99.90;;;;;;5016848;28;20124;-78
2022/03/29 06:30:16;;;;;;;21.15;11.93;;;6.40;99.90;;;;;;4988919;28;20087;-77
2022/03/29 06:32:50;;;;;;;21.35;12.52;;;6.40;99.90;;;;;;5007848;28;20029;-78
2022/03/29 06:35:21;;;;;;;23.05;13.60;;;6.40;99.90;;;;;;4984505;28;20060;-78
2022/03/29 06:37:49;;;;;;;20.60;12.57;;;6.40;99.90;;;;;;4984402;28;20433;-77
2022/03/29 06:40:14;;;;;;;22.20;13.50;;;6.40;99.90;;;;;;5008880;28;20060;-78
2022/03/29 06:42:40;;;;;;;28.35;15.75;;;6.40;99.90;;;;;;5017561;28;20037;-78
2022/03/29 06:45:07;;;;;;;24.05;14.10;;;6.30;99.90;;;;;;4992921;28;20079;-78
2022/03/29 06:47:33;;;;;;;25.15;14.25;;;6.30;99.90;;;;;;4993949;28;20862;-78
2022/03/29 06:49:58;;;;;;;22.48;13.05;;;6.30;99.90;;;;;;5009181;28;20018;-78
2022/03/29 06:52:26;;;;;;;20.00;10.93;;;6.40;99.90;;;;;;5009132;28;20045;-78
2022/03/29 06:54:52;;;;;;;20.48;11.73;;;6.40;99.90;;;;;;5006555;28;20367;-78
2022/03/29 06:57:18;;;;;;;13.70;8.00;;;6.40;99.90;;;;;;4989871;28;20477;-77
2022/03/29 06:59:44;;;;;;;18.30;9.70;;;6.40;99.90;;;;;;5009659;28;20029;-78
2022/03/29 07:02:10;;;;;;;17.83;10.88;;;6.40;99.90;;;;;;4992559;28;21788;-78
2022/03/29 07:04:35;;;;;;;17.20;9.77;;;6.40;99.90;;;;;;5006432;28;20026;-77
2022/03/29 07:07:01;;;;;;;18.23;10.95;;;6.40;99.90;;;;;;5005165;28;20029;-79
2022/03/29 07:12:12;;;;;;;16.60;10.68;;;6.50;99.90;;;;;;5008468;28;20030;-77
2022/03/29 07:14:37;;;;;;;23.35;13.32;;;6.50;99.90;;;;;;4990400;28;20038;-78
2022/03/29 07:17:07;;;;;;;19.85;12.02;;;6.50;99.90;;;;;;5006263;28;20497;-78
2022/03/29 07:19:33;;;;;;;;;;;6.50;99.90;;;;;;4987620;28;20180;-77
2022/03/29 07:21:59;;;;;;;20.08;11.18;;;6.40;99.90;;;;;;5005626;28;20011;-79
2022/03/29 07:24:24;;;;;;;22.00;11.88;;;6.50;99.90;;;;;;5014910;28;20037;-77
2022/03/29 07:26:50;;;;;;;21.92;13.15;;;6.50;99.90;;;;;;5009213;28;20032;-77
2022/03/29 07:29:16;;;;;;;20.77;13.75;;;6.50;99.90;;;;;;5013298;28;20038;-77
2022/03/29 07:31:42;;;;;;;21.83;12.48;;;6.50;99.90;;;;;;5006533;28;20236;-78
2022/03/29 07:34:08;;;;;;;20.48;11.90;;;6.50;99.90;;;;;;5023310;28;20135;-77
2022/03/29 07:36:33;;;;;;;24.83;14.30;;;6.40;99.90;;;;;;5013379;28;20124;-77
2022/03/29 07:38:59;;;;;;;23.75;13.43;;;6.40;99.90;;;;;;5004380;28;20175;-77
2022/03/29 07:41:25;;;;;;;22.85;14.10;;;6.50;99.90;;;;;;5008771;28;20477;-77
2022/03/29 07:43:51;;;;;;;22.83;13.18;;;6.60;99.90;;;;;;5023334;28;20477;-77
2022/03/29 07:46:17;;;;;;;20.80;11.52;;;6.60;99.90;;;;;;4990304;28;20034;-77
2022/03/29 07:48:43;;;;;;;20.08;12.85;;;6.80;99.90;;;;;;5026599;28;20125;-76
2022/03/29 07:51:11;;;;;;;28.73;16.92;;;6.80;99.90;;;;;;5001999;28;20069;-78
2022/03/29 07:53:37;;;;;;;24.02;14.55;;;6.70;99.90;;;;;;5025302;28;20034;-77
2022/03/29 07:56:04;;;;;;;24.02;14.23;;;6.80;99.90;;;;;;4990164;28;20068;-77
2022/03/29 07:58:30;;;;;;;24.15;14.07;;;6.90;99.90;;;;;;5005878;28;20486;-77
2022/03/29 08:00:55;;;;;;;27.45;16.27;;;6.90;99.90;;;;;;5017953;28;20088;-77
2022/03/29 08:03:22;;;;;;;21.70;13.15;;;6.90;99.90;;;;;;5008857;28;20057;-77
2022/03/29 08:05:49;;;;;;;21.15;13.32;;;7.10;99.90;;;;;;5024960;28;20033;-77
2022/03/29 08:08:16;;;;;;;16.05;9.98;;;7.20;99.90;;;;;;5008269;28;20397;-77
2022/03/29 08:10:46;;;;;;;24.08;13.20;;;7.30;99.90;;;;;;4989553;28;20227;-77
2022/03/29 08:13:14;;;;;;;20.25;13.02;;;7.40;99.90;;;;;;5006824;28;20684;-77
2022/03/29 08:15:41;;;;;;;20.88;12.90;;;7.40;99.90;;;;;;5020261;28;20038;-78
2022/03/29 08:18:07;;;;;;;23.95;14.75;;;7.50;99.90;;;;;;5003022;28;20041;-78
2022/03/29 08:20:33;;;;;;;20.33;11.98;;;7.60;99.90;;;;;;4989243;28;20037;-77
2022/03/29 08:23:00;;;;;;;19.58;12.07;;;7.50;99.90;;;;;;5023764;28;20033;-77
2022/03/29 08:25:29;;;;;;;18.75;11.23;;;7.50;99.90;;;;;;5005793;28;20037;-77
2022/03/29 08:27:56;;;;;;;14.60;9.90;;;7.60;99.90;;;;;;5013367;28;20512;-77
2022/03/29 08:30:23;;;;;;;20.20;11.60;;;7.50;99.90;;;;;;4994772;28;20032;-77
2022/03/29 08:32:49;;;;;;;25.10;16.80;;;7.70;99.90;;;;;;5001519;28;20158;-78
2022/03/29 08:35:15;;;;;;;29.60;17.40;;;7.60;99.90;;;;;;5021094;28;20879;-77
2022/03/29 08:37:41;;;;;;;27.80;16.02;;;7.70;99.90;;;;;;5001574;28;20026;-77
2022/03/29 08:40:13;;;;;;;28.48;17.00;;;7.80;99.90;;;;;;5012911;28;20033;-76
2022/03/29 08:42:46;;;;;;;22.88;13.82;;;7.90;99.90;;;;;;5002185;28;20037;-78
2022/03/29 08:45:16;;;;;;;25.95;15.65;;;8.00;99.90;;;;;;4989877;28;20041;-77
2022/03/29 08:47:47;;;;;;;28.90;17.58;;;8.00;99.90;;;;;;4985092;28;20465;-78
2022/03/29 08:50:14;;;;;;;31.35;18.58;;;8.10;99.90;;;;;;5006911;28;20029;-78
2022/03/29 08:52:40;;;;;;;27.15;17.08;;;8.10;99.90;;;;;;5022160;28;20041;-77
2022/03/29 08:55:08;;;;;;;23.83;14.15;;;8.10;99.90;;;;;;4992160;28;20034;-77
2022/03/29 08:57:35;;;;;;;28.55;17.00;;;8.20;99.90;;;;;;4980098;28;20112;-78
2022/03/29 09:00:02;;;;;;;24.88;14.75;;;8.40;99.90;;;;;;5023927;28;20469;-78
2022/03/29 09:02:33;;;;;;;26.52;15.90;;;8.60;99.90;;;;;;4985179;28;20498;-78
2022/03/29 09:05:14;;;;;;;29.02;17.73;;;8.40;99.90;;;;;;4986097;28;20374;-77
2022/03/29 09:07:54;;;;;;;26.65;16.13;;;8.40;99.90;;;;;;5007733;28;20044;-78
2022/03/29 09:10:21;;;;;;;29.20;17.38;;;8.80;99.90;;;;;;4998197;28;21039;-77
2022/03/29 09:12:47;;;;;;;31.48;17.67;;;8.80;99.90;;;;;;5003060;28;20042;-77
2022/03/29 09:15:13;;;;;;;27.80;18.48;;;9.00;99.90;;;;;;4984258;28;20045;-77
2022/03/29 09:17:42;;;;;;;26.40;16.65;;;9.20;99.90;;;;;;5006348;28;20034;-78
2022/03/29 09:20:13;;;;;;;30.45;18.35;;;9.00;99.90;;;;;;5003034;28;20037;-78
2022/03/29 09:22:59;;;;;;;29.85;16.95;;;9.00;99.90;;;;;;5005413;28;20046;-78
2022/03/29 09:25:35;;;;;;;28.67;17.15;;;9.00;99.90;;;;;;4988547;28;20033;-77
2022/03/29 09:28:03;;;;;;;28.77;16.42;;;9.10;99.90;;;;;;4997494;28;20229;-77
2022/03/29 09:30:40;;;;;;;35.05;21.58;;;9.20;99.90;;;;;;4974693;28;20785;-77
2022/03/29 09:33:14;;;;;;;30.10;18.13;;;8.90;99.90;;;;;;5003876;28;20128;-78
2022/03/29 09:36:05;;;;;;;30.70;18.27;;;9.20;99.90;;;;;;5001626;28;20037;-78
2022/03/29 09:38:41;;;;;;;29.42;17.17;;;9.40;99.90;;;;;;4970416;28;20037;-77
2022/03/29 09:41:29;;;;;;;29.95;18.63;;;9.30;99.90;;;;;;5006113;28;20060;-77
2022/03/29 09:44:02;;;;;;;30.27;18.52;;;8.90;99.90;;;;;;5020610;28;21712;-77
2022/03/29 09:46:29;;;;;;;;;;;9.10;99.90;;;;;;4995714;28;20028;-78
2022/03/29 09:49:00;;;;;;;38.58;23.60;;;9.10;99.90;;;;;;5001790;28;19924;-78
2022/03/29 09:51:29;;;;;;;38.15;22.58;;;9.00;99.90;;;;;;4985059;28;20065;-78
2022/03/29 09:53:57;;;;;;;41.20;25.27;;;9.30;99.90;;;;;;5003709;28;20067;-78
2022/03/29 09:56:29;;;;;;;35.97;22.75;;;9.00;99.90;;;;;;5022878;28;20057;-78
2022/03/29 09:59:17;;;;;;;35.00;21.33;;;9.40;99.90;;;;;;4983961;28;20037;-78
2022/03/29 10:01:57;;;;;;;26.50;15.68;;;9.60;99.90;;;;;;5000921;28;20064;-78
2022/03/29 10:04:31;;;;;;;24.77;15.88;;;10.10;99.90;;;;;;5003871;28;20034;-78
2022/03/29 10:07:03;;;;;;;26.80;15.75;;;10.00;99.90;;;;;;4987800;28;20508;-78
2022/03/29 10:09:32;;;;;;;34.08;21.30;;;9.90;99.90;;;;;;5005525;28;20044;-78
2022/03/29 10:12:04;;;;;;;34.53;21.05;;;9.80;99.90;;;;;;4985569;28;20041;-78
2022/03/29 10:14:32;;;;;;;30.95;19.23;;;10.00;99.90;;;;;;5006137;28;20649;-78
2022/03/29 10:16:58;;;;;;;33.25;20.42;;;10.00;99.90;;;;;;5003855;28;20041;-80
2022/03/29 10:19:25;;;;;;;30.58;19.45;;;9.80;99.90;;;;;;5005878;28;20056;-79
2022/03/29 10:21:53;;;;;;;29.70;17.90;;;9.90;99.90;;;;;;5007028;28;20552;-78
2022/03/29 10:24:19;;;;;;;30.60;19.15;;;10.10;99.90;;;;;;5021199;28;20049;-78
2022/03/29 10:26:48;;;;;;;26.30;15.95;;;10.30;99.90;;;;;;5024511;28;20063;-78
2022/03/29 10:29:15;;;;;;;28.30;17.95;;;10.80;99.90;;;;;;5001679;28;20111;-79
2022/03/29 10:31:55;;;;;;;28.65;17.85;;;11.20;99.90;;;;;;4998959;28;20045;-78
2022/03/29 10:34:30;;;;;;;26.48;15.85;;;11.50;99.90;;;;;;5024535;28;20041;-78
2022/03/29 10:37:17;;;;;;;32.03;19.38;;;11.50;99.90;;;;;;5020493;28;20996;-79
2022/03/29 10:39:55;;;;;;;34.30;23.83;;;11.10;99.90;;;;;;5004068;28;20104;-78
2022/03/29 10:42:28;;;;;;;28.75;18.55;;;10.60;99.90;;;;;;4983303;28;20037;-78
2022/03/29 10:45:10;;;;;;;25.25;17.40;;;10.80;99.90;;;;;;5000020;28;20033;-78
2022/03/29 10:47:36;;;;;;;28.42;18.83;;;11.00;99.90;;;;;;4984004;28;20029;-78
2022/03/29 10:50:04;;;;;;;26.70;17.90;;;10.80;99.90;;;;;;4967261;28;20072;-78
2022/03/29 10:52:40;;;;;;;24.50;17.52;;;11.20;99.90;;;;;;4970706;28;20049;-78
2022/03/29 10:55:27;;;;;;;24.65;15.65;;;11.60;99.90;;;;;;5001432;28;20033;-79
2022/03/29 10:58:09;;;;;;;35.20;22.70;;;11.70;99.90;;;;;;5001201;28;20037;-79
2022/03/29 11:00:37;;;;;;;29.35;19.95;;;11.70;99.90;;;;;;5000041;28;20084;-78
2022/03/29 11:03:20;;;;;;;26.30;18.02;;;12.20;99.90;;;;;;4984434;28;20120;-78
2022/03/29 11:06:12;;;;;;;24.17;16.77;;;12.30;99.90;;;;;;4999138;28;20131;-78
2022/03/29 11:08:45;;;;;;;28.15;20.50;;;12.60;99.90;;;;;;5003109;28;20435;-78
2022/03/29 11:11:36;;;;;;;31.65;21.02;;;12.20;99.90;;;;;;5021528;28;20026;-79
2022/03/29 11:14:27;;;;;;;24.58;17.55;;;12.70;99.90;;;;;;4979582;28;20532;-78
2022/03/29 11:17:13;;;;;;;32.85;23.13;;;12.80;99.90;;;;;;5021625;28;20037;-77
2022/03/29 11:19:49;;;;;;;37.85;22.95;;;12.20;99.90;;;;;;4995407;28;20469;-79
2022/03/29 11:22:36;;;;;;;30.60;19.88;;;12.30;99.90;;;;;;5002293;28;20129;-78
2022/03/29 11:25:09;;;;;;;30.92;21.92;;;12.60;99.90;;;;;;4983608;28;20793;-79
2022/03/29 11:27:36;;;;;;;23.30;16.85;;;12.60;99.90;;;;;;5021719;28;20360;-78
2022/03/29 11:30:10;;;;;;;26.17;18.77;;;13.00;99.90;;;;;;5002167;28;20286;-79
2022/03/29 11:32:40;;;;;;;20.55;15.73;;;12.80;99.90;;;;;;4997908;28;20061;-78
2022/03/29 11:35:07;;;;;;;24.30;16.23;;;13.00;99.90;;;;;;4992185;28;20057;-79
2022/03/29 11:37:43;;;;;;;24.13;16.45;;;13.00;99.90;;;;;;5007662;28;20036;-78
2022/03/29 11:40:14;;;;;;;32.03;22.30;;;13.30;99.90;;;;;;5018267;28;20112;-79
2022/03/29 11:42:59;;;;;;;29.48;20.73;;;12.20;99.90;;;;;;5009035;28;20053;-78
2022/03/29 11:45:29;;;;;;;27.98;18.92;;;12.40;99.90;;;;;;4992198;28;20083;-79
2022/03/29 11:48:01;;;;;;;21.58;15.77;;;12.70;99.90;;;;;;5006045;28;20037;-81
2022/03/29 11:50:44;;;;;;;18.27;13.15;;;13.30;99.90;;;;;;5019149;28;20048;-81
2022/03/29 11:53:17;;;;;;;25.80;19.25;;;13.50;99.90;;;;;;4983941;28;20080;-81
2022/03/29 11:55:43;;;;;;;22.27;16.48;;;13.00;99.90;;;;;;4995234;28;21135;-81
2022/03/29 11:58:29;;;;;;;19.80;15.32;;;13.40;99.90;;;;;;5025650;28;20489;-81
2022/03/29 12:01:03;;;;;;;15.57;11.93;;;13.60;99.90;;;;;;5008353;28;20226;-81
2022/03/29 12:03:35;;;;;;;14.48;11.73;;;13.90;99.90;;;;;;4986078;28;20048;-80
2022/03/29 12:06:06;;;;;;;16.13;11.75;;;13.70;99.90;;;;;;5023133;28;20091;-81
2022/03/29 12:08:47;;;;;;;14.57;11.35;;;13.40;99.90;;;;;;4989895;28;20107;-80
2022/03/29 12:11:15;;;;;;;16.38;12.18;;;13.70;99.90;;;;;;5008216;28;20363;-81
2022/03/29 12:13:42;;;;;;;15.15;11.10;;;14.00;99.90;;;;;;5009594;28;20060;-81
2022/03/29 12:16:22;;;;;;;18.20;13.20;;;14.20;99.90;;;;;;5009476;28;20424;-81
2022/03/29 12:18:49;;;;;;;21.83;15.82;;;13.80;99.90;;;;;;5008729;28;20359;-81
2022/03/29 12:21:18;;;;;;;24.02;18.60;;;13.70;99.90;;;;;;5025424;28;20097;-81
2022/03/29 12:23:44;;;;;;;21.08;17.27;;;13.60;99.90;;;;;;5004192;28;20029;-82
2022/03/29 12:26:11;;;;;;;20.25;16.02;;;14.00;99.90;;;;;;5007289;28;20034;-81
2022/03/29 12:28:38;;;;;;;18.13;13.90;;;14.20;99.90;;;;;;4998446;28;20183;-81
2022/03/29 12:31:14;;;;;;;21.45;16.02;;;14.20;99.90;;;;;;4988707;28;20193;-81
2022/03/29 12:33:40;;;;;;;26.75;18.55;;;13.80;99.90;;;;;;4988257;28;20030;-81
2022/03/29 12:36:08;;;;;;;19.92;15.48;;;13.60;99.90;;;;;;5006716;28;20025;-81
2022/03/29 12:38:46;;;;;;;18.50;14.30;;;14.00;99.90;;;;;;4992355;28;20075;-81
2022/03/29 12:41:13;;;;;;;25.85;20.58;;;14.10;99.90;;;;;;5004190;28;20045;-81
2022/03/29 12:43:51;;;;;;;21.98;16.02;;;13.40;99.90;;;;;;5008448;28;20405;-82
2022/03/29 12:46:17;;;;;;;19.15;14.13;;;14.00;99.90;;;;;;4988443;28;20041;-82
2022/03/29 12:48:48;;;;;;;16.20;13.02;;;14.10;99.90;;;;;;5023399;28;20037;-81
2022/03/29 12:51:14;;;;;;;18.77;14.88;;;14.30;99.90;;;;;;5002536;28;20060;-83